Time;durP1;ratioP1;P1;durP2;ratioP2;P2;SDS_P1;SDS_P2;PMS_P1;PMS_P2;Temp;Humidity;BMP_temperature;BMP_pressure;BME280_temperature;BME280_humidity;BME280_pressure;Samples;Min_cycle;Max_cycle;Signal;HPM_P1;HPM_P2
2021/04/04 00:01:28;;;;;;;2.90;2.17;;;;;;;22.31;51.36;100346.55;1796489;78;21177;-58
2021/04/04 00:03:54;;;;;;;3.65;2.33;;;;;;;22.33;51.31;100352.54;1792148;78;21576;-58
2021/04/04 00:06:21;;;;;;;3.37;2.47;;;;;;;22.33;51.27;100361.42;1799076;78;21181;-58
2021/04/04 00:08:47;;;;;;;4.08;2.42;;;;;;;22.32;51.24;100362.00;1791075;79;21182;-57
2021/04/04 00:11:14;;;;;;;3.70;2.75;;;;;;;22.31;51.24;100367.33;1810446;78;21590;-58
2021/04/04 00:13:41;;;;;;;2.80;2.25;;;;;;;22.30;51.24;100362.92;1808842;78;21365;-57
2021/04/04 00:16:08;;;;;;;3.25;2.33;;;;;;;22.31;51.24;100365.13;1813656;78;21162;-58
2021/04/04 00:18:37;;;;;;;2.80;2.30;;;;;;;22.32;51.23;100361.18;1799688;77;21126;-57
2021/04/04 00:21:05;;;;;;;3.75;2.55;;;;;;;22.33;51.17;100369.17;1789546;77;21595;-57
2021/04/04 00:23:31;;;;;;;3.55;2.70;;;;;;;22.33;51.16;100373.33;1792925;77;21184;-56
2021/04/04 00:25:58;;;;;;;4.42;2.65;;;;;;;22.32;51.13;100365.34;1803401;78;21834;-56
2021/04/04 00:28:25;;;;;;;3.62;2.83;;;;;;;22.30;51.13;100356.57;1799786;78;21614;-56
2021/04/04 00:30:52;;;;;;;3.55;2.65;;;;;;;22.30;51.15;100365.70;1799382;78;21186;-56
2021/04/04 00:33:19;;;;;;;4.75;2.85;;;;;;;22.30;51.15;100359.34;1806226;78;21170;-56
2021/04/04 00:35:45;;;;;;;4.47;3.15;;;;;;;22.32;51.11;100355.64;1805536;78;21109;-56
2021/04/04 00:38:13;;;;;;;3.62;2.65;;;;;;;22.31;51.07;100358.20;1802127;78;21130;-56
2021/04/04 00:40:39;;;;;;;3.62;2.77;;;;;;;22.31;51.03;100362.36;1801566;78;21154;-56
2021/04/04 00:43:06;;;;;;;3.60;2.72;;;;;;;22.29;51.03;100354.38;1801291;78;21155;-56
2021/04/04 00:45:35;;;;;;;3.60;2.45;;;;;;;22.29;51.04;100361.30;1799804;78;21573;-57
2021/04/04 00:48:03;;;;;;;4.08;2.72;;;;;;;22.29;51.03;100361.30;1796961;78;21185;-56
2021/04/04 00:50:34;;;;;;;4.12;3.10;;;;;;;22.30;50.99;100360.16;1800438;78;21167;-60
2021/04/04 00:53:01;;;;;;;3.75;2.83;;;;;;;22.31;50.95;100356.24;1800765;78;21231;-60
2021/04/04 00:55:27;;;;;;;4.12;2.92;;;;;;;22.29;50.95;100354.38;1806854;78;21624;-56
2021/04/04 00:57:55;;;;;;;4.33;2.62;;;;;;;22.29;50.92;100357.72;1811913;78;21439;-56
2021/04/04 01:00:25;;;;;;;3.60;2.42;;;;;;;22.28;50.92;100352.74;1796290;78;21245;-56
2021/04/04 01:02:54;;;;;;;4.12;3.05;;;;;;;22.28;50.92;100357.47;1800896;78;21148;-56
2021/04/04 01:05:24;;;;;;;4.60;3.08;;;;;;;22.29;50.91;100357.72;1820694;77;21202;-56
2021/04/04 01:07:48;;;;;;;3.60;2.98;;;;;;;22.28;50.86;100365.22;1822601;78;21161;-57
2021/04/04 01:10:15;;;;;;;3.60;2.70;;;;;;;22.30;50.79;100373.20;1813406;78;21134;-57
2021/04/04 01:13:13;;;;;;;5.40;3.55;;;;;;;22.26;50.77;100367.53;1803508;77;21177;-57
2021/04/04 01:15:46;;;;;;;5.03;3.30;;;;;;;22.26;50.78;100363.38;1820395;77;21193;-56
2021/04/04 01:18:38;;;;;;;4.45;3.08;;;;;;;22.27;50.76;100365.57;1810764;78;21501;-56
2021/04/04 01:21:12;;;;;;;4.58;3.33;;;;;;;22.26;50.73;100358.40;1801674;78;21154;-62
2021/04/04 01:23:46;;;;;;;4.60;3.27;;;;;;;22.27;50.67;100364.19;1799988;78;21163;-57
2021/04/04 01:26:37;;;;;;;4.78;3.25;;;;;;;22.26;50.65;100366.71;1795127;78;21170;-57
2021/04/04 01:29:05;;;;;;;3.58;2.98;;;;;;;22.24;50.64;100371.20;1797108;78;21130;-57
2021/04/04 01:31:34;;;;;;;5.45;3.25;;;;;;;22.23;50.63;100363.25;1809280;78;21215;-57
2021/04/04 01:34:01;;;;;;;5.30;3.55;;;;;;;22.23;50.62;100354.94;1808591;78;21182;-57
2021/04/04 01:36:30;;;;;;;3.87;3.00;;;;;;;22.24;50.60;100364.84;1801943;78;21138;-57
2021/04/04 01:38:56;;;;;;;4.60;3.37;;;;;;;22.24;50.55;100364.84;1789264;78;21214;-57
2021/04/04 01:41:34;;;;;;;4.75;3.40;;;;;;;22.23;50.54;100363.25;1802573;78;21518;-56
2021/04/04 01:44:05;;;;;;;4.53;3.55;;;;;;;22.23;50.54;100364.06;1799818;78;21224;-57
2021/04/04 01:46:32;;;;;;;4.03;3.17;;;;;;;22.21;50.53;100363.57;1795483;78;21174;-57
2021/04/04 01:48:58;;;;;;;4.50;3.37;;;;;;;22.21;50.53;100369.69;1799637;78;21138;-58
2021/04/04 01:51:25;;;;;;;5.90;4.17;;;;;;;22.23;50.52;100372.37;1783865;78;21526;-57
2021/04/04 01:53:52;;;;;;;4.67;3.70;;;;;;;22.23;50.48;100369.60;1769687;78;21203;-57
2021/04/04 01:56:18;;;;;;;6.67;4.17;;;;;;;22.24;50.43;100373.16;1798419;78;21241;-57
2021/04/04 01:58:45;;;;;;;5.75;3.45;;;;;;;22.23;50.41;100372.95;1793488;78;21142;-57
2021/04/04 02:01:12;;;;;;;5.65;3.62;;;;;;;22.21;50.41;100376.05;1796250;78;21135;-57
2021/04/04 02:03:40;;;;;;;4.70;3.45;;;;;;;22.22;50.41;100383.22;1809238;79;22209;-56
2021/04/04 02:06:06;;;;;;;5.20;3.70;;;;;;;22.22;50.40;100378.24;1794598;78;21177;-57
2021/04/04 02:08:34;;;;;;;4.92;3.70;;;;;;;22.23;50.39;100379.30;1798407;78;21293;-57
2021/04/04 02:11:01;;;;;;;4.25;3.50;;;;;;;22.24;50.32;100386.44;1800136;79;21200;-57
2021/04/04 02:13:28;;;;;;;5.40;3.90;;;;;;;22.23;50.30;100382.64;1786388;79;21147;-57
2021/04/04 02:16:01;;;;;;;4.80;3.90;;;;;;;22.23;50.28;100392.34;1797735;78;21122;-57
2021/04/04 02:18:27;;;;;;;4.78;4.03;;;;;;;22.22;50.27;100389.33;1795631;78;21111;-57
2021/04/04 02:20:54;;;;;;;5.30;4.08;;;;;;;22.22;50.28;100399.84;1794942;78;21224;-57
2021/04/04 02:23:23;;;;;;;5.40;4.17;;;;;;;22.23;50.27;100400.66;1806265;78;21207;-57
2021/04/04 02:25:53;;;;;;;6.03;4.50;;;;;;;22.23;50.21;100400.66;1794198;78;21630;-57
2021/04/04 02:28:21;;;;;;;4.40;3.62;;;;;;;22.22;50.18;100404.56;1806355;78;21195;-57
2021/04/04 02:30:49;;;;;;;5.30;4.03;;;;;;;22.20;50.16;100406.28;1789886;77;21135;-57
2021/04/04 02:33:27;;;;;;;4.62;3.58;;;;;;;22.20;50.15;100409.63;1810611;79;21442;-57
2021/04/04 02:35:57;;;;;;;4.65;3.87;;;;;;;22.20;50.14;100416.55;1793073;77;21138;-58
2021/04/04 02:38:34;;;;;;;5.00;3.98;;;;;;;22.21;50.13;100418.18;1807681;78;21135;-56
2021/04/04 02:41:02;;;;;;;6.15;4.15;;;;;;;22.20;50.12;100417.36;1798838;79;21674;-56
2021/04/04 02:43:29;;;;;;;7.03;4.85;;;;;;;22.20;50.07;100421.52;1807724;78;21189;-58
2021/04/04 02:45:57;;;;;;;5.75;4.35;;;;;;;22.18;50.03;100423.02;1791787;79;21217;-58
2021/04/04 02:48:33;;;;;;;5.55;4.35;;;;;;;22.15;50.08;100420.93;1803453;78;21165;-56
2021/04/04 02:51:06;;;;;;;5.00;3.85;;;;;;;22.15;50.08;100433.40;1805361;78;21174;-57
2021/04/04 02:53:36;;;;;;;6.65;3.90;;;;;;;22.14;50.07;100428.42;1801531;78;21199;-56
2021/04/04 02:56:03;;;;;;;6.10;4.85;;;;;;;22.14;50.03;100429.81;1789273;79;21120;-57
2021/04/04 02:58:30;;;;;;;6.80;4.67;;;;;;;22.14;49.98;100426.23;1803132;78;21172;-56
2021/04/04 03:00:57;;;;;;;6.25;4.35;;;;;;;22.12;49.97;100433.48;1802716;78;21167;-56
2021/04/04 03:03:25;;;;;;;5.62;4.28;;;;;;;22.08;49.97;100438.07;1792415;79;21237;-56
2021/04/04 03:05:53;;;;;;;6.33;4.60;;;;;;;22.05;50.01;100430.44;1775924;78;21098;-56
2021/04/04 03:08:19;;;;;;;5.55;4.20;;;;;;;22.05;50.03;100424.91;1818960;78;21122;-56
2021/04/04 03:10:50;;;;;;;6.40;4.58;;;;;;;22.05;50.02;100426.86;1815883;78;21449;-56
2021/04/04 03:13:14;;;;;;;6.97;5.10;;;;;;;22.05;49.98;100434.60;1823449;77;21143;-56
2021/04/04 03:15:40;;;;;;;5.40;4.25;;;;;;;22.04;49.96;100437.13;1809432;78;21143;-57
2021/04/04 03:18:07;;;;;;;5.50;4.42;;;;;;;22.00;49.96;100433.41;1818997;78;21358;-57
2021/04/04 03:20:34;;;;;;;5.85;3.98;;;;;;;21.99;49.96;100438.70;1811706;78;21165;-56
2021/04/04 03:23:01;;;;;;;6.10;4.53;;;;;;;21.98;49.99;100435.69;1797803;78;22115;-57
2021/04/04 03:25:28;;;;;;;5.30;3.95;;;;;;;21.98;49.97;100432.91;1796700;78;21935;-56
2021/04/04 03:27:55;;;;;;;5.78;4.47;;;;;;;21.99;49.96;100427.62;1795757;78;21129;-56
2021/04/04 03:30:35;;;;;;;6.50;4.78;;;;;;;21.99;49.92;100425.42;1775815;78;21598;-56
2021/04/04 03:33:04;;;;;;;6.45;4.22;;;;;;;21.97;49.90;100431.88;1778959;78;21198;-58
2021/04/04 03:35:32;;;;;;;5.83;4.42;;;;;;;21.95;49.90;100431.39;1800392;78;22023;-57
2021/04/04 03:38:01;;;;;;;5.12;4.03;;;;;;;21.95;49.90;100432.78;1806343;78;21187;-57
2021/04/04 03:40:28;;;;;;;5.25;3.85;;;;;;;21.94;49.90;100429.80;1770049;78;21558;-57
2021/04/04 03:42:56;;;;;;;5.60;4.35;;;;;;;21.97;49.88;100438.81;1799449;78;21256;-57
2021/04/04 03:45:23;;;;;;;6.05;4.25;;;;;;;21.97;49.81;100448.50;1805036;78;21165;-57
2021/04/04 03:47:49;;;;;;;6.42;4.37;;;;;;;21.95;49.76;100439.70;1782494;78;22201;-58
2021/04/04 03:50:17;;;;;;;6.12;4.20;;;;;;;21.93;49.77;100447.55;1805472;78;21147;-57
2021/04/04 03:52:46;;;;;;;6.45;4.58;;;;;;;21.91;49.77;100442.30;1794801;78;21517;-57
2021/04/04 03:55:15;;;;;;;4.85;3.58;;;;;;;21.92;49.76;100452.81;1796785;78;21199;-57
2021/04/04 03:57:42;;;;;;;6.05;4.72;;;;;;;21.91;49.76;100447.84;1803437;78;21117;-60
2021/04/04 04:00:11;;;;;;;5.90;4.67;;;;;;;21.93;49.72;100461.41;1797877;78;21601;-57
2021/04/04 04:02:38;;;;;;;6.10;4.58;;;;;;;21.92;49.66;100460.59;1796979;78;21236;-58
2021/04/04 04:05:06;;;;;;;5.50;4.37;;;;;;;21.89;49.66;100462.62;1798512;78;21800;-57
2021/04/04 04:07:33;;;;;;;7.05;4.50;;;;;;;21.88;49.68;100474.27;1802637;78;21185;-58
2021/04/04 04:10:01;;;;;;;5.25;4.00;;;;;;;21.87;49.67;100475.41;1798961;78;21514;-57
2021/04/04 04:12:29;;;;;;;6.42;4.58;;;;;;;21.87;49.66;100486.48;1801628;78;21460;-57
2021/04/04 04:14:56;;;;;;;5.55;4.50;;;;;;;21.87;49.63;100478.17;1798350;78;21134;-57
2021/04/04 04:17:24;;;;;;;6.45;4.55;;;;;;;21.88;49.59;100477.61;1812569;78;21146;-58
2021/04/04 04:19:51;;;;;;;5.65;4.37;;;;;;;21.87;49.58;100474.59;1801204;78;21455;-58
2021/04/04 04:22:18;;;;;;;6.33;4.37;;;;;;;21.85;49.57;100482.44;1795777;78;21177;-57
2021/04/04 04:24:50;;;;;;;5.62;4.35;;;;;;;21.83;49.57;100484.14;1777504;79;21627;-58
2021/04/04 04:27:17;;;;;;;5.53;4.58;;;;;;;21.84;49.57;100499.62;1766285;80;22017;-58
2021/04/04 04:29:48;;;;;;;6.10;4.72;;;;;;;21.84;49.54;100499.62;1792603;80;21517;-58
2021/04/04 04:32:15;;;;;;;;;;;;;;;21.83;49.50;100501.33;1785867;80;21142;-60
2021/04/04 04:34:42;;;;;;;4.87;4.17;;;;;;;21.82;49.48;100499.70;1772894;80;20210;-58
2021/04/04 04:37:13;;;;;;;5.25;4.37;;;;;;;21.80;49.50;100503.39;1783856;80;21215;-58
2021/04/04 04:39:41;;;;;;;5.90;4.65;;;;;;;21.80;49.50;100508.92;1785455;80;21146;-58
2021/04/04 04:42:11;;;;;;;5.78;4.75;;;;;;;21.81;49.48;100518.27;1779054;80;21137;-58
2021/04/04 04:44:42;;;;;;;7.08;5.10;;;;;;;21.77;49.34;100509.00;1772745;80;21106;-58
2021/04/04 04:47:10;;;;;;;5.53;4.50;;;;;;;21.77;49.34;100509.00;1771571;80;21152;-58
2021/04/04 04:49:37;;;;;;;6.78;4.72;;;;;;;21.81;49.36;100527.17;1775699;79;21206;-58
2021/04/04 04:52:05;;;;;;;7.12;4.80;;;;;;;21.78;49.36;100526.43;1775369;80;21217;-58
2021/04/04 04:54:31;;;;;;;6.05;4.22;;;;;;;21.79;49.36;100533.60;1780487;79;21564;-58
2021/04/04 04:56:58;;;;;;;6.58;4.87;;;;;;;21.80;49.35;100533.84;1745992;80;21177;-57
2021/04/04 04:59:24;;;;;;;5.60;4.30;;;;;;;21.80;49.31;100532.47;1774568;80;21200;-57
2021/04/04 05:01:51;;;;;;;5.47;4.17;;;;;;;21.78;49.30;100532.78;1742408;80;22168;-58
2021/04/04 05:04:18;;;;;;;6.65;4.50;;;;;;;21.79;49.28;100534.98;1766633;79;21596;-58
2021/04/04 05:06:48;;;;;;;5.67;4.37;;;;;;;21.78;49.27;100539.70;1777481;79;21124;-57
2021/04/04 05:09:15;;;;;;;7.15;4.65;;;;;;;21.80;49.23;100542.97;1737151;80;21546;-58
2021/04/04 05:11:46;;;;;;;7.15;5.28;;;;;;;21.82;49.17;100543.44;1774368;80;21225;-57
2021/04/04 05:14:13;;;;;;;6.33;4.30;;;;;;;21.82;49.13;100548.97;1784685;80;21144;-57
2021/04/04 05:16:40;;;;;;;6.08;4.72;;;;;;;21.81;49.09;100553.48;1785191;80;21137;-58
2021/04/04 05:19:11;;;;;;;5.78;4.58;;;;;;;21.80;49.10;100554.62;1772205;79;21165;-58
2021/04/04 05:21:39;;;;;;;5.55;4.62;;;;;;;21.79;49.06;100560.73;1790810;80;21011;-58
2021/04/04 05:24:08;;;;;;;5.95;4.72;;;;;;;21.80;49.04;100562.36;1798309;78;21201;-58
2021/04/04 05:26:42;;;;;;;7.70;4.83;;;;;;;21.82;49.01;100562.83;1799465;78;22039;-58
2021/04/04 05:29:10;;;;;;;6.87;5.15;;;;;;;21.81;48.99;100559.80;1800626;78;21143;-58
2021/04/04 05:31:56;;;;;;;6.30;4.60;;;;;;;21.81;48.95;100559.80;1797218;78;21508;-57
2021/04/04 05:34:28;;;;;;;7.15;4.65;;;;;;;21.81;48.93;100567.33;1794545;78;21153;-57
2021/04/04 05:36:59;;;;;;;6.47;4.62;;;;;;;21.81;48.90;100569.50;1797389;78;21222;-57
2021/04/04 05:39:28;;;;;;;6.83;5.30;;;;;;;21.83;48.86;100568.61;1802714;78;21192;-58
2021/04/04 05:41:57;;;;;;;5.75;4.42;;;;;;;21.85;48.80;100581.54;1798165;78;21573;-58
2021/04/04 05:44:43;;;;;;;7.60;5.50;;;;;;;21.85;48.73;100584.91;1798634;78;21145;-57
2021/04/04 05:47:21;;;;;;;6.72;4.78;;;;;;;21.84;48.74;100586.05;1767343;78;21649;-57
2021/04/04 05:49:55;;;;;;;7.17;4.97;;;;;;;21.84;48.71;100585.47;1794724;78;21147;-58
2021/04/04 05:52:57;;;;;;;6.00;4.80;;;;;;;21.86;48.70;100587.33;1797700;78;21712;-58
2021/04/04 05:55:54;;;;;;;7.15;5.47;;;;;;;21.88;48.64;100579.52;1799914;78;21250;-57
2021/04/04 05:58:32;;;;;;;8.05;5.60;;;;;;;21.88;48.56;100571.20;1793792;78;21197;-57
2021/04/04 06:01:03;;;;;;;8.00;5.55;;;;;;;21.85;48.50;100569.08;1797606;78;21546;-57
2021/04/04 06:03:58;;;;;;;6.22;4.42;;;;;;;21.85;48.50;100572.44;1796018;78;21246;-56
2021/04/04 06:07:06;;;;;;;6.35;5.47;;;;;;;21.85;48.49;100574.61;1795807;78;21601;-57
2021/04/04 06:10:01;;;;;;;7.42;5.35;;;;;;;21.88;48.44;100575.92;1797232;78;21446;-57
2021/04/04 06:13:02;;;;;;;7.47;5.42;;;;;;;21.87;48.37;100582.03;1798280;78;21159;-57
2021/04/04 06:15:58;;;;;;;7.87;5.80;;;;;;;21.85;48.31;100584.31;1804729;78;21122;-57
2021/04/04 06:18:54;;;;;;;7.25;5.22;;;;;;;21.83;48.31;100581.64;1756603;78;21141;-57
2021/04/04 06:21:37;;;;;;;7.20;5.12;;;;;;;21.83;48.30;100585.23;1796508;78;21220;-57
2021/04/04 06:24:31;;;;;;;7.37;5.12;;;;;;;21.85;48.26;100594.00;1798918;78;21189;-56
2021/04/04 06:27:12;;;;;;;8.03;5.35;;;;;;;21.85;48.20;100593.22;1783480;78;21151;-58
2021/04/04 06:29:47;;;;;;;7.37;5.30;;;;;;;21.84;48.19;100597.12;1799811;78;21589;-57
2021/04/04 06:32:41;;;;;;;7.35;5.08;;;;;;;21.82;48.18;100600.78;1798244;78;21166;-58
2021/04/04 06:35:24;;;;;;;7.80;5.03;;;;;;;21.83;48.17;100604.61;1795367;78;22143;-57
2021/04/04 06:38:23;;;;;;;7.55;4.95;;;;;;;21.86;48.14;100601.17;1795024;78;21036;-56
2021/04/04 06:41:16;;;;;;;7.20;5.42;;;;;;;21.88;48.09;100610.55;1799311;78;21548;-57
2021/04/04 06:44:19;;;;;;;8.10;5.37;;;;;;;21.91;48.02;100619.57;1796710;78;21222;-57
2021/04/04 06:47:16;;;;;;;7.22;5.10;;;;;;;21.90;47.96;100617.94;1800570;78;21189;-57
2021/04/04 06:50:21;;;;;;;6.17;4.90;;;;;;;21.91;47.93;100622.34;1796780;78;21149;-57
2021/04/04 06:53:20;;;;;;;5.83;4.45;;;;;;;21.93;47.90;100628.41;1764452;78;21003;-56
2021/04/04 06:56:09;;;;;;;6.75;5.00;;;;;;;21.97;47.85;100641.02;1807008;78;21235;-56
2021/04/04 06:58:59;;;;;;;7.03;5.28;;;;;;;21.96;47.78;100641.59;1789472;79;21598;-58
2021/04/04 07:01:40;;;;;;;5.83;4.60;;;;;;;21.95;47.71;100648.83;1799140;78;21138;-56
2021/04/04 07:04:12;;;;;;;5.00;4.17;;;;;;;21.94;47.71;100654.16;1799616;78;21207;-56
2021/04/04 07:07:12;;;;;;;6.20;4.70;;;;;;;21.95;47.72;100657.95;1797254;78;21187;-57
2021/04/04 07:10:32;;;;;;;5.20;4.25;;;;;;;21.98;47.69;100659.27;1807722;78;21159;-58
2021/04/04 07:13:34;;;;;;;6.70;4.87;;;;;;;21.99;47.65;100658.92;1800960;78;21273;-57
2021/04/04 07:16:15;;;;;;;;;;;;;;;21.98;47.59;100653.13;1805881;78;21197;-56
2021/04/04 07:19:10;;;;;;;5.97;4.28;;;;;;;21.94;47.55;100660.48;1800817;78;21219;-56
2021/04/04 07:22:27;;;;;;;5.62;4.50;;;;;;;21.95;47.57;100665.45;1801298;78;21389;-56
2021/04/04 07:25:41;;;;;;;6.60;4.95;;;;;;;21.97;47.55;100661.80;1798434;78;21121;-56
2021/04/04 07:28:32;;;;;;;6.12;4.83;;;;;;;21.98;47.49;100663.43;1796641;78;21194;-56
2021/04/04 07:31:02;;;;;;;6.42;4.45;;;;;;;21.96;47.43;100666.52;1797868;78;21214;-57
2021/04/04 07:33:52;;;;;;;6.05;4.42;;;;;;;21.95;47.42;100668.22;1799177;78;21234;-56
2021/04/04 07:36:45;;;;;;;5.42;3.72;;;;;;;21.95;47.40;100673.20;1801236;78;21130;-57
2021/04/04 07:39:35;;;;;;;5.92;4.12;;;;;;;21.98;47.40;100668.97;1767804;78;21161;-58
2021/04/04 07:42:31;;;;;;;6.20;4.40;;;;;;;22.00;47.34;100668.05;1804261;78;21210;-58
2021/04/04 07:45:12;;;;;;;6.83;4.70;;;;;;;22.00;47.30;100670.83;1792144;78;21202;-58
2021/04/04 07:48:02;;;;;;;5.67;3.80;;;;;;;21.99;47.28;100668.62;1798261;78;21254;-58
2021/04/04 07:50:46;;;;;;;7.10;4.03;;;;;;;22.02;47.29;100675.48;1797704;78;21122;-59
2021/04/04 07:53:41;;;;;;;4.83;3.22;;;;;;;22.04;47.29;100676.76;1794006;78;21147;-58
2021/04/04 07:56:39;;;;;;;4.95;3.00;;;;;;;22.07;47.03;100678.05;1801089;78;21265;-57
2021/04/04 07:59:32;;;;;;;4.33;3.52;;;;;;;21.99;46.40;100677.50;1753386;78;21099;-58
2021/04/04 08:02:29;;;;;;;4.70;3.12;;;;;;;21.87;45.90;100681.74;1797338;78;21195;-57
2021/04/04 08:05:07;;;;;;;3.95;2.98;;;;;;;21.79;45.48;100678.98;1790791;78;21194;-58
2021/04/04 08:08:02;;;;;;;3.45;2.85;;;;;;;21.72;45.08;100680.06;1799075;78;21159;-58
2021/04/04 08:10:39;;;;;;;4.30;3.35;;;;;;;21.67;44.73;100684.39;1798081;78;21727;-58
2021/04/04 08:13:31;;;;;;;4.65;3.27;;;;;;;21.60;44.47;100677.94;1802058;78;21498;-58
2021/04/04 08:16:13;;;;;;;4.65;3.02;;;;;;;21.55;44.18;100672.59;1776762;78;21726;-58
2021/04/04 08:18:39;;;;;;;3.77;2.85;;;;;;;21.49;44.00;100669.73;1798872;78;21167;-57
2021/04/04 08:21:10;;;;;;;3.22;2.67;;;;;;;21.47;43.76;100680.34;1796967;78;21190;-57
2021/04/04 08:23:51;;;;;;;;;;;;;;;21.45;43.50;100683.99;1790894;78;21160;-57
2021/04/04 08:26:33;;;;;;;6.12;3.62;;;;;;;21.43;43.30;100691.23;1778168;80;20504;-58
2021/04/04 08:29:07;;;;;;;3.98;3.27;;;;;;;21.39;43.22;100698.55;1781023;80;21213;-56
2021/04/04 08:31:41;;;;;;;4.20;3.45;;;;;;;21.35;42.98;100701.73;1777094;80;21157;-57
2021/04/04 08:34:26;;;;;;;4.37;3.72;;;;;;;21.33;42.77;100696.28;1754193;80;21427;-57
2021/04/04 08:36:57;;;;;;;5.55;3.45;;;;;;;21.30;42.60;100706.63;1771669;79;21129;-59
2021/04/04 08:39:27;;;;;;;;;;;;;;;21.24;42.39;100710.11;1779807;80;21187;-57
2021/04/04 08:41:53;;;;;;;17.30;9.50;;;;;;;21.16;42.20;100702.63;1776854;79;21131;-56
2021/04/04 08:44:42;;;;;;;27.77;16.75;;;;;;;21.11;42.26;100708.84;1786208;79;21200;-56
2021/04/04 08:47:31;;;;;;;82.30;48.20;;;;;;;21.12;42.31;100704.41;1772511;80;21022;-57
2021/04/04 08:49:58;;;;;;;76.35;38.70;;;;;;;21.16;42.48;100704.01;1782802;80;21125;-57
2021/04/04 08:52:38;;;;;;;77.80;43.58;;;;;;;21.20;42.68;100700.84;1776340;80;21177;-56
2021/04/04 08:55:07;;;;;;;84.53;45.90;;;;;;;21.25;42.86;100708.17;1780070;78;21599;-56
2021/04/04 08:57:47;;;;;;;82.53;46.70;;;;;;;21.26;43.05;100705.05;1773537;80;37917;-58
2021/04/04 09:00:18;;;;;;;80.35;44.95;;;;;;;21.30;43.23;100705.25;1757061;80;21172;-56
2021/04/04 09:03:01;;;;;;;70.10;41.88;;;;;;;21.32;43.44;100700.19;1778862;80;21129;-57
2021/04/04 09:05:30;;;;;;;67.82;39.73;;;;;;;21.34;43.62;100706.22;1782907;80;21443;-57
2021/04/04 09:07:58;;;;;;;70.65;40.15;;;;;;;21.36;43.82;100707.52;1774778;80;21194;-58
2021/04/04 09:10:26;;;;;;;70.12;38.95;;;;;;;21.40;43.94;100711.27;1778370;80;21344;-57
2021/04/04 09:12:52;;;;;;;64.82;34.65;;;;;;;21.44;44.11;100704.50;1764866;80;21137;-59
2021/04/04 09:15:19;;;;;;;62.80;34.63;;;;;;;21.47;44.27;100707.20;1783714;80;21157;-58
2021/04/04 09:17:57;;;;;;;54.20;31.45;;;;;;;21.50;44.34;100699.62;1774707;79;21882;-58
2021/04/04 09:20:33;;;;;;;48.48;30.77;;;;;;;21.51;44.41;100697.92;1792538;80;22092;-59
2021/04/04 09:23:02;;;;;;;56.53;30.92;;;;;;;21.55;44.51;100698.90;1776697;80;21160;-58
2021/04/04 09:25:30;;;;;;;49.83;28.62;;;;;;;21.57;44.58;100702.70;1798678;78;21145;-58
2021/04/04 09:27:58;;;;;;;47.03;28.92;;;;;;;21.59;44.65;100699.05;1798306;78;21415;-59
2021/04/04 09:30:35;;;;;;;47.88;29.32;;;;;;;21.62;44.75;100695.63;1792689;78;21171;-56
2021/04/04 09:33:06;;;;;;;45.23;28.90;;;;;;;21.64;44.81;100703.05;1806914;78;21579;-58
2021/04/04 09:35:34;;;;;;;45.85;27.07;;;;;;;21.65;44.93;100694.39;1798585;78;21125;-57
2021/04/04 09:38:07;;;;;;;38.75;22.60;;;;;;;21.66;44.99;100701.56;1803270;78;21106;-60
2021/04/04 09:40:34;;;;;;;37.23;22.58;;;;;;;21.67;45.09;100698.23;1798134;78;21656;-57
2021/04/04 09:43:09;;;;;;;34.78;22.60;;;;;;;21.67;45.17;100692.69;1785303;78;21207;-58
2021/04/04 09:45:36;;;;;;;38.73;23.40;;;;;;;21.69;45.23;100701.47;1801673;78;22112;-58
2021/04/04 09:48:24;;;;;;;35.92;22.02;;;;;;;21.68;45.28;100699.30;1797858;78;21130;-59
2021/04/04 09:51:16;;;;;;;34.25;21.40;;;;;;;21.68;45.40;100699.86;1799991;78;21216;-58
2021/04/04 09:53:47;;;;;;;31.25;20.40;;;;;;;21.66;45.53;100693.83;1798428;78;21583;-60
2021/04/04 09:56:16;;;;;;;31.17;19.57;;;;;;;21.64;45.71;100698.30;1794155;78;21247;-58
2021/04/04 09:58:45;;;;;;;32.30;21.17;;;;;;;21.64;45.86;100689.20;1792852;78;21515;-60
2021/04/04 10:01:22;;;;;;;35.92;22.02;;;;;;;21.62;45.99;100689.52;1797361;78;21179;-58
2021/04/04 10:04:04;;;;;;;33.13;21.23;;;;;;;21.62;46.11;100692.85;1794292;78;21502;-58
2021/04/04 10:06:34;;;;;;;30.27;19.10;;;;;;;21.60;46.22;100686.84;1794836;78;21513;-58
2021/04/04 10:09:07;;;;;;;30.60;19.80;;;;;;;21.57;46.34;100685.53;1801367;78;21197;-57
2021/04/04 10:11:34;;;;;;;25.02;17.27;;;;;;;21.55;46.44;100675.37;1795344;78;22305;-59
2021/04/04 10:14:11;;;;;;;28.27;18.17;;;;;;;21.53;46.58;100670.72;1797293;78;21221;-58
2021/04/04 10:16:38;;;;;;;25.17;17.60;;;;;;;21.53;46.72;100667.13;1798367;78;21219;-58
2021/04/04 10:19:15;;;;;;;24.67;16.27;;;;;;;21.52;46.85;100670.46;1803840;78;21726;-59
2021/04/04 10:22:02;;;;;;;14.55;8.95;;;;;;;21.51;46.97;100663.89;1799774;78;21628;-58
2021/04/04 10:24:32;;;;;;;14.65;7.55;;;;;;;21.51;46.76;100655.02;1798395;78;21591;-58
2021/04/04 10:27:26;;;;;;;10.08;6.83;;;;;;;21.50;46.18;100658.10;1799796;78;21630;-58
2021/04/04 10:30:16;;;;;;;10.95;6.97;;;;;;;21.47;45.67;100659.58;1801042;78;21134;-59
2021/04/04 10:32:49;;;;;;;10.50;5.62;;;;;;;21.45;45.28;100659.65;1794473;78;21134;-57
2021/04/04 10:35:37;;;;;;;10.55;6.65;;;;;;;21.43;44.82;100656.41;1807183;78;21189;-57
2021/04/04 10:38:07;;;;;;;12.88;5.95;;;;;;;21.40;44.41;100653.70;1800150;78;21189;-57
2021/04/04 10:40:47;;;;;;;8.13;5.08;;;;;;;21.37;44.28;100657.13;1818339;77;21179;-57
2021/04/04 10:43:19;;;;;;;11.55;6.22;;;;;;;21.36;44.37;100658.27;1795381;78;21111;-57
2021/04/04 10:46:02;;;;;;;7.83;5.58;;;;;;;21.36;44.61;100662.42;1805013;78;21174;-58
2021/04/04 10:48:30;;;;;;;7.95;5.33;;;;;;;21.36;44.67;100666.00;1801088;78;21179;-59
2021/04/04 10:50:58;;;;;;;9.95;5.42;;;;;;;21.35;44.52;100670.47;1798021;78;21260;-59
2021/04/04 10:53:24;;;;;;;10.03;6.83;;;;;;;21.36;44.44;100665.19;1802670;78;21231;-58
2021/04/04 10:55:51;;;;;;;10.45;7.10;;;;;;;21.36;44.48;100664.62;1795950;78;21498;-62
2021/04/04 10:58:25;;;;;;;7.78;5.65;;;;;;;21.37;44.76;100659.34;1798290;78;21189;-62
2021/04/04 11:00:50;;;;;;;8.78;4.62;;;;;;;21.39;44.83;100659.80;1796446;78;21115;-61
2021/04/04 11:03:16;;;;;;;7.67;5.40;;;;;;;21.41;44.32;100651.19;1791082;79;22140;-61
2021/04/04 11:05:43;;;;;;;8.63;5.53;;;;;;;21.41;44.07;100659.49;1790872;79;21567;-61
2021/04/04 11:08:09;;;;;;;8.43;6.00;;;;;;;21.40;43.68;100652.33;1791052;79;21115;-61
2021/04/04 11:10:44;;;;;;;8.38;5.33;;;;;;;21.39;43.36;100655.66;1790984;80;22204;-61
2021/04/04 11:13:14;;;;;;;7.33;5.42;;;;;;;21.39;43.09;100650.69;1791146;80;21159;-61
2021/04/04 11:15:44;;;;;;;8.20;5.80;;;;;;;21.38;42.83;100640.78;1791085;80;21168;-61
2021/04/04 11:18:16;;;;;;;9.03;6.42;;;;;;;21.38;42.58;100636.06;1790427;80;21147;-61
2021/04/04 11:20:45;;;;;;;10.53;7.60;;;;;;;21.39;42.38;100639.05;1790670;80;21162;-61
2021/04/04 11:23:12;;;;;;;14.70;8.50;;;;;;;21.39;42.23;100634.90;1792194;78;21988;-63
2021/04/04 11:25:38;;;;;;;10.48;7.50;;;;;;;21.40;42.10;100623.27;1797101;77;21209;-65
2021/04/04 11:28:20;;;;;;;9.55;7.22;;;;;;;21.43;42.18;100623.20;1800282;78;23522;-62
2021/04/04 11:30:50;;;;;;;11.45;7.83;;;;;;;21.43;41.96;100628.95;1797831;78;21191;-65
2021/04/04 11:33:22;;;;;;;10.55;6.85;;;;;;;21.44;41.76;100631.16;1798898;78;21149;-63
2021/04/04 11:36:12;;;;;;;6.90;5.62;;;;;;;21.46;41.56;100631.66;1807530;77;21112;-64
2021/04/04 11:38:56;;;;;;;11.57;6.00;;;;;;;21.44;41.35;100627.00;1799978;78;21123;-64
2021/04/04 11:41:27;;;;;;;7.83;5.80;;;;;;;21.40;41.17;100628.80;1802364;78;21205;-65
2021/04/04 11:44:15;;;;;;;7.60;5.85;;;;;;;21.36;41.03;100634.75;1807422;78;21125;-64
2021/04/04 11:46:57;;;;;;;8.60;5.83;;;;;;;21.33;40.90;100633.45;1796615;78;21193;-63
2021/04/04 11:49:36;;;;;;;9.63;6.08;;;;;;;21.30;40.70;100636.06;1800747;78;21537;-64
2021/04/04 11:52:22;;;;;;;6.97;5.30;;;;;;;21.26;40.54;100627.58;1799435;78;21193;-63
2021/04/04 11:54:51;;;;;;;6.92;5.15;;;;;;;21.23;40.43;100631.01;1799912;78;21645;-63
2021/04/04 11:57:26;;;;;;;6.50;5.30;;;;;;;21.20;40.31;100623.37;1804872;78;21585;-62
2021/04/04 11:59:56;;;;;;;6.87;5.30;;;;;;;21.16;40.20;100627.92;1801568;78;21561;-63